Time;durP1;ratioP1;P1;durP2;ratioP2;P2;SDS_P1;SDS_P2;PMS_P1;PMS_P2;Temp;Humidity;BMP_temperature;BMP_pressure;BME280_temperature;BME280_humidity;BME280_pressure;Samples;Min_cycle;Max_cycle;Signal;HPM_P1;HPM_P2
2020/12/28 00:00:15;;;;;;;0.55;0.30;;;20.80;46.80;;;;;;4921464;29;20056;-51
2020/12/28 00:02:41;;;;;;;0.30;0.22;;;20.70;46.70;;;;;;4921092;29;20044;-50
2020/12/28 00:05:09;;;;;;;0.77;0.28;;;20.60;46.70;;;;;;4921284;29;20040;-46
2020/12/28 00:07:38;;;;;;;0.47;0.30;;;20.60;47.40;;;;;;4921385;29;20036;-50
2020/12/28 00:10:05;;;;;;;0.38;0.30;;;20.60;46.70;;;;;;4921406;29;20137;-50
2020/12/28 00:12:46;;;;;;;0.63;0.30;;;20.60;46.80;;;;;;4921150;29;20100;-47
2020/12/28 00:15:14;;;;;;;1.95;0.40;;;20.60;46.80;;;;;;4921222;29;20354;-47
2020/12/28 00:17:39;;;;;;;0.47;0.20;;;20.60;46.80;;;;;;4921255;29;20116;-49
2020/12/28 00:20:05;;;;;;;0.35;0.28;;;20.50;46.70;;;;;;4921176;29;20411;-46
2020/12/28 00:22:30;;;;;;;0.20;0.20;;;20.50;46.70;;;;;;4920893;29;20055;-47
2020/12/28 00:24:55;;;;;;;0.55;0.35;;;20.50;46.70;;;;;;4920980;29;20422;-46
2020/12/28 00:27:21;;;;;;;0.20;0.20;;;20.50;46.80;;;;;;4920599;29;20047;-49
2020/12/28 00:29:46;;;;;;;0.63;0.30;;;20.50;46.70;;;;;;4920746;29;20068;-47
2020/12/28 00:32:12;;;;;;;0.20;0.20;;;20.50;46.70;;;;;;4920718;29;20083;-45
2020/12/28 00:34:37;;;;;;;0.30;0.28;;;20.50;46.80;;;;;;4920446;29;20080;-45
2020/12/28 00:37:03;;;;;;;0.25;0.25;;;20.40;46.70;;;;;;4920446;29;20055;-47
2020/12/28 00:39:28;;;;;;;0.30;0.30;;;20.40;46.70;;;;;;4920699;29;20100;-45
2020/12/28 00:41:54;;;;;;;0.57;0.30;;;20.40;46.70;;;;;;4920981;29;20063;-45
2020/12/28 00:44:19;;;;;;;0.20;0.20;;;20.40;46.70;;;;;;4920997;29;20458;-50
2020/12/28 00:46:45;;;;;;;0.50;0.40;;;20.30;46.70;;;;;;4920969;29;20040;-50
2020/12/28 00:49:10;;;;;;;0.22;0.22;;;20.30;47.30;;;;;;4920561;29;20333;-49
2020/12/28 00:51:36;;;;;;;0.22;0.10;;;20.30;46.70;;;;;;4920028;29;20054;-50
2020/12/28 00:54:01;;;;;;;0.15;0.15;;;20.30;46.70;;;;;;4920339;29;20059;-52
2020/12/28 00:56:27;;;;;;;0.45;0.20;;;20.30;47.30;;;;;;4920387;29;20107;-48
2020/12/28 00:58:52;;;;;;;0.55;0.30;;;20.30;46.70;;;;;;4920492;29;20504;-46
2020/12/28 01:01:17;;;;;;;0.20;0.20;;;20.30;46.70;;;;;;4920481;29;20036;-47
2020/12/28 01:03:43;;;;;;;0.55;0.30;;;20.20;46.70;;;;;;4920095;29;20573;-48
2020/12/28 01:06:08;;;;;;;0.30;0.20;;;20.20;46.60;;;;;;4919694;29;20044;-49
2020/12/28 01:08:34;;;;;;;0.30;0.30;;;20.20;46.70;;;;;;4919768;29;20040;-50
2020/12/28 01:10:59;;;;;;;0.55;0.20;;;20.20;46.70;;;;;;4920015;29;20348;-48
2020/12/28 01:13:25;;;;;;;0.20;0.20;;;20.20;46.70;;;;;;4919948;29;20100;-49
2020/12/28 01:15:50;;;;;;;0.40;0.30;;;20.20;46.70;;;;;;4920085;29;20079;-54
2020/12/28 01:18:16;;;;;;;0.47;0.32;;;20.20;46.70;;;;;;4919985;29;20179;-50
2020/12/28 01:20:41;;;;;;;0.28;0.20;;;20.10;46.60;;;;;;4919547;29;20371;-50
2020/12/28 01:23:07;;;;;;;0.20;0.20;;;20.10;46.60;;;;;;4919851;29;20033;-48
2020/12/28 01:25:32;;;;;;;0.20;0.20;;;20.10;46.70;;;;;;4919573;29;20036;-49
2020/12/28 01:27:58;;;;;;;0.35;0.32;;;20.10;46.70;;;;;;4919810;29;20525;-51
2020/12/28 01:30:24;;;;;;;0.25;0.25;;;20.10;46.60;;;;;;4920229;29;20040;-54
2020/12/28 01:32:49;;;;;;;0.15;0.15;;;20.10;46.60;;;;;;4919789;29;20040;-53
2020/12/28 01:35:15;;;;;;;0.32;0.20;;;20.10;46.70;;;;;;4919384;29;20032;-50
2020/12/28 01:37:40;;;;;;;0.20;0.20;;;20.10;46.70;;;;;;4919580;29;20051;-53
2020/12/28 01:40:06;;;;;;;0.32;0.20;;;20.00;46.60;;;;;;4919678;29;20040;-48
2020/12/28 01:42:31;;;;;;;0.30;0.22;;;20.00;46.60;;;;;;4919658;29;20451;-48
2020/12/28 01:44:57;;;;;;;0.30;0.30;;;20.00;46.60;;;;;;4919497;29;20032;-51
2020/12/28 01:47:25;;;;;;;0.40;0.20;;;20.00;46.60;;;;;;4919705;29;20039;-48
2020/12/28 01:49:50;;;;;;;0.22;0.22;;;20.00;46.60;;;;;;4919453;29;20028;-53
2020/12/28 01:52:16;;;;;;;0.50;0.50;;;20.00;46.60;;;;;;4919303;29;20095;-50
2020/12/28 01:54:42;;;;;;;0.10;0.10;;;20.00;46.70;;;;;;4919668;29;20048;-47
2020/12/28 01:57:07;;;;;;;0.20;0.20;;;20.00;46.70;;;;;;4919649;29;20036;-51
2020/12/28 01:59:33;;;;;;;0.20;0.10;;;19.90;46.60;;;;;;4919414;29;20055;-50
2020/12/28 02:02:02;;;;;;;0.30;0.30;;;20.00;46.70;;;;;;4918913;29;20459;-52
2020/12/28 02:04:27;;;;;;;0.50;0.30;;;19.90;46.60;;;;;;4919135;29;20055;-51
2020/12/28 02:06:53;;;;;;;0.93;0.40;;;19.90;46.60;;;;;;4919014;29;20379;-52
2020/12/28 02:09:18;;;;;;;0.10;0.10;;;19.90;46.60;;;;;;4919551;29;20028;-48
2020/12/28 02:11:44;;;;;;;0.30;0.30;;;19.90;46.60;;;;;;4919166;29;20457;-50
2020/12/28 02:14:09;;;;;;;0.30;0.30;;;19.90;46.60;;;;;;4918688;29;20040;-49
2020/12/28 02:16:35;;;;;;;0.20;0.20;;;19.90;46.60;;;;;;4919195;29;20028;-49
2020/12/28 02:19:00;;;;;;;0.20;0.20;;;19.90;46.60;;;;;;4918482;29;20047;-52
2020/12/28 02:21:27;;;;;;;0.40;0.35;;;19.80;46.50;;;;;;4919266;29;20534;-52
2020/12/28 02:23:52;;;;;;;0.60;0.40;;;19.90;46.60;;;;;;4919364;29;20055;-51
2020/12/28 02:26:18;;;;;;;1.45;0.20;;;19.80;46.60;;;;;;4918905;29;20362;-52
2020/12/28 02:28:43;;;;;;;0.20;0.20;;;19.80;46.50;;;;;;4919268;29;20043;-52
2020/12/28 02:31:09;;;;;;;1.48;0.30;;;19.80;46.60;;;;;;4919281;29;20420;-49
2020/12/28 02:33:35;;;;;;;0.63;0.30;;;19.80;46.60;;;;;;4918748;29;20419;-45
2020/12/28 02:36:00;;;;;;;0.50;0.43;;;19.80;46.60;;;;;;4918544;29;20109;-51
2020/12/28 02:38:26;;;;;;;0.57;0.30;;;19.80;46.60;;;;;;4918980;29;20571;-48
2020/12/28 02:40:51;;;;;;;0.30;0.28;;;19.80;46.60;;;;;;4919334;29;20032;-51
2020/12/28 02:43:17;;;;;;;0.10;0.10;;;19.80;46.60;;;;;;4919064;29;20043;-50
2020/12/28 02:45:42;;;;;;;0.20;0.10;;;19.80;46.60;;;;;;4918624;29;20111;-53
2020/12/28 02:48:08;;;;;;;0.35;0.20;;;19.70;46.50;;;;;;4918352;29;20116;-49
2020/12/28 02:50:33;;;;;;;0.28;0.20;;;19.70;46.50;;;;;;4918712;29;20040;-45
2020/12/28 02:52:59;;;;;;;0.43;0.20;;;19.70;46.60;;;;;;4918949;29;20045;-50
2020/12/28 02:55:24;;;;;;;0.38;0.38;;;19.70;46.60;;;;;;4918651;29;20126;-51
2020/12/28 02:57:50;;;;;;;0.20;0.15;;;19.70;46.50;;;;;;4918518;29;20051;-52
2020/12/28 03:00:15;;;;;;;0.88;0.20;;;19.70;46.50;;;;;;4918325;29;20069;-51
2020/12/28 03:02:41;;;;;;;0.20;0.20;;;19.70;46.60;;;;;;4918365;29;20119;-52
2020/12/28 03:05:07;;;;;;;0.10;0.10;;;19.70;46.60;;;;;;4901677;29;20363;-52
2020/12/28 03:07:33;;;;;;;0.55;0.20;;;19.70;46.60;;;;;;4918637;29;20123;-52
2020/12/28 03:09:59;;;;;;;0.20;0.20;;;19.60;46.50;;;;;;4918705;29;20432;-52
2020/12/28 03:12:25;;;;;;;0.10;0.10;;;19.70;46.60;;;;;;4918632;29;20067;-51
2020/12/28 03:14:51;;;;;;;0.47;0.20;;;19.60;46.50;;;;;;4918395;29;20107;-53
2020/12/28 03:17:17;;;;;;;0.30;0.20;;;19.60;46.60;;;;;;4918547;29;20044;-52
2020/12/28 03:19:42;;;;;;;0.30;0.30;;;19.60;46.60;;;;;;4917927;29;20036;-51
2020/12/28 03:22:08;;;;;;;0.85;0.30;;;19.60;46.50;;;;;;4918105;29;20032;-51
2020/12/28 03:24:34;;;;;;;0.38;0.10;;;19.60;46.60;;;;;;4918718;29;20036;-50
2020/12/28 03:27:02;;;;;;;0.28;0.28;;;19.60;46.60;;;;;;4918634;29;20047;-51
2020/12/28 03:29:32;;;;;;;0.28;0.28;;;19.60;46.60;;;;;;4918277;29;20064;-50
2020/12/28 03:31:58;;;;;;;0.35;0.20;;;19.60;46.60;;;;;;4921054;29;20032;-45
2020/12/28 03:34:24;;;;;;;0.20;0.20;;;19.60;46.60;;;;;;4921684;29;20076;-46
2020/12/28 03:36:49;;;;;;;0.40;0.30;;;19.50;46.50;;;;;;4921814;29;20108;-44
2020/12/28 03:39:15;;;;;;;0.20;0.20;;;19.60;46.70;;;;;;4921991;29;20036;-48
2020/12/28 03:41:40;;;;;;;0.20;0.20;;;19.50;46.60;;;;;;4922043;29;20032;-44
2020/12/28 03:44:07;;;;;;;0.40;0.20;;;19.50;46.50;;;;;;4921832;29;20546;-50
2020/12/28 03:46:32;;;;;;;0.90;0.40;;;19.50;46.60;;;;;;4921674;29;20044;-44
2020/12/28 03:48:58;;;;;;;0.30;0.20;;;19.50;46.60;;;;;;4921630;29;20059;-50
2020/12/28 03:51:23;;;;;;;0.20;0.20;;;19.50;46.60;;;;;;4922075;29;20032;-51
2020/12/28 03:53:48;;;;;;;1.00;0.30;;;19.50;46.60;;;;;;4921147;29;20131;-48
2020/12/28 03:56:14;;;;;;;0.45;0.30;;;19.50;46.60;;;;;;4921722;29;20051;-48
2020/12/28 03:58:40;;;;;;;1.60;0.50;;;19.50;46.60;;;;;;4921473;29;20024;-45
2020/12/28 04:01:05;;;;;;;0.22;0.22;;;19.50;46.60;;;;;;4921598;29;20037;-45
2020/12/28 04:03:31;;;;;;;1.75;0.20;;;19.40;46.60;;;;;;4921259;29;20115;-45
2020/12/28 04:05:57;;;;;;;0.45;0.30;;;19.40;46.60;;;;;;4921021;29;20131;-48
2020/12/28 04:08:23;;;;;;;0.20;0.20;;;19.40;46.60;;;;;;4921275;29;20040;-46
2020/12/28 04:10:48;;;;;;;0.30;0.30;;;19.40;46.60;;;;;;4921659;29;20099;-45
2020/12/28 04:13:14;;;;;;;0.30;0.17;;;19.40;46.60;;;;;;4921228;29;20435;-46
2020/12/28 04:15:39;;;;;;;0.35;0.20;;;19.40;46.60;;;;;;4920896;29;20099;-45
2020/12/28 04:18:05;;;;;;;0.10;0.10;;;19.40;46.60;;;;;;4920990;29;20040;-47
2020/12/28 04:20:30;;;;;;;0.13;0.13;;;19.30;46.50;;;;;;4921170;29;20040;-45
2020/12/28 04:22:56;;;;;;;0.50;0.40;;;19.40;46.60;;;;;;4921139;29;20035;-46
2020/12/28 04:25:21;;;;;;;0.20;0.20;;;19.30;46.60;;;;;;4920751;29;20064;-45
2020/12/28 04:27:47;;;;;;;0.25;0.20;;;19.40;46.70;;;;;;4920907;29;20044;-45
2020/12/28 04:30:12;;;;;;;0.20;0.20;;;19.40;46.70;;;;;;4920847;29;20046;-47
2020/12/28 04:32:38;;;;;;;0.50;0.17;;;19.30;46.60;;;;;;4920878;29;20033;-47
2020/12/28 04:35:04;;;;;;;0.57;0.30;;;19.30;46.60;;;;;;4921006;29;20040;-46
2020/12/28 04:37:31;;;;;;;0.25;0.25;;;19.30;46.60;;;;;;4920258;29;20135;-45
2020/12/28 04:39:56;;;;;;;0.90;0.30;;;19.30;46.60;;;;;;4921028;29;20050;-45
2020/12/28 04:42:26;;;;;;;0.93;0.40;;;19.30;46.60;;;;;;4920227;29;20396;-44
2020/12/28 04:44:53;;;;;;;0.22;0.20;;;19.30;46.60;;;;;;4920634;29;20036;-44
2020/12/28 04:47:18;;;;;;;0.82;0.40;;;19.30;46.60;;;;;;4920572;29;20033;-46
2020/12/28 04:49:47;;;;;;;0.10;0.10;;;19.30;46.60;;;;;;4920558;29;20119;-44
2020/12/28 04:52:13;;;;;;;0.40;0.30;;;19.30;46.60;;;;;;4920913;29;20039;-46
2020/12/28 04:54:40;;;;;;;0.52;0.38;;;19.30;46.60;;;;;;4920412;29;20044;-44
2020/12/28 04:57:07;;;;;;;0.30;0.30;;;19.20;46.60;;;;;;4920603;29;20036;-48
2020/12/28 04:59:32;;;;;;;0.25;0.20;;;19.20;46.50;;;;;;4920426;29;20127;-48
2020/12/28 05:01:58;;;;;;;0.82;0.43;;;19.20;46.50;;;;;;4920400;29;20116;-43
2020/12/28 05:04:24;;;;;;;0.20;0.20;;;19.20;46.60;;;;;;4920004;29;20040;-45
2020/12/28 05:07:04;;;;;;;0.28;0.28;;;19.20;46.60;;;;;;4920298;29;20459;-46
2020/12/28 05:09:31;;;;;;;0.35;0.25;;;19.30;46.60;;;;;;4920640;29;20043;-46
2020/12/28 05:11:58;;;;;;;0.25;0.20;;;19.20;46.60;;;;;;4920187;29;20051;-46
2020/12/28 05:14:24;;;;;;;1.10;0.30;;;19.20;46.50;;;;;;4920009;29;20048;-44
2020/12/28 05:16:57;;;;;;;0.30;0.30;;;19.20;46.60;;;;;;4919679;29;20414;-45
2020/12/28 05:19:22;;;;;;;0.38;0.28;;;19.20;46.60;;;;;;4919941;29;20059;-44
2020/12/28 05:21:48;;;;;;;1.02;0.40;;;19.20;46.50;;;;;;4919939;29;20040;-44
2020/12/28 05:24:14;;;;;;;0.38;0.35;;;19.20;46.60;;;;;;4919727;29;20032;-46
2020/12/28 05:26:42;;;;;;;0.38;0.30;;;19.10;46.50;;;;;;4919842;29;20036;-45
2020/12/28 05:29:12;;;;;;;0.30;0.30;;;19.10;46.50;;;;;;4919948;29;20047;-46
2020/12/28 05:31:38;;;;;;;0.25;0.22;;;19.10;46.50;;;;;;4919719;29;20036;-45
2020/12/28 05:34:04;;;;;;;0.25;0.20;;;19.10;46.50;;;;;;4919811;29;20052;-45
2020/12/28 05:36:29;;;;;;;0.40;0.40;;;19.10;46.50;;;;;;4919513;29;20078;-45
2020/12/28 05:38:57;;;;;;;0.88;0.30;;;19.10;46.50;;;;;;4919574;29;20041;-46
2020/12/28 05:41:27;;;;;;;0.20;0.20;;;19.10;46.50;;;;;;4919393;29;20443;-46
2020/12/28 05:43:53;;;;;;;0.43;0.35;;;19.10;46.50;;;;;;4920029;29;20047;-45
2020/12/28 05:46:23;;;;;;;0.55;0.30;;;19.10;46.50;;;;;;4919079;29;20095;-46
2020/12/28 05:48:54;;;;;;;0.60;0.38;;;19.10;46.50;;;;;;4919547;29;20036;-46
2020/12/28 05:51:20;;;;;;;1.20;0.50;;;19.00;46.40;;;;;;4919419;29;20036;-46
2020/12/28 05:53:47;;;;;;;0.10;0.10;;;19.00;46.40;;;;;;4918476;29;20052;-47
2020/12/28 05:56:14;;;;;;;0.43;0.40;;;19.00;46.40;;;;;;4919260;29;20111;-45
2020/12/28 05:58:43;;;;;;;0.52;0.40;;;19.00;46.40;;;;;;4919204;29;20040;-46
2020/12/28 06:01:10;;;;;;;0.40;0.40;;;19.00;46.40;;;;;;4918965;29;20040;-47
2020/12/28 06:03:41;;;;;;;0.55;0.40;;;19.00;46.40;;;;;;4919264;29;20119;-47
2020/12/28 06:06:08;;;;;;;0.32;0.32;;;19.00;46.40;;;;;;4919243;29;20051;-47
2020/12/28 06:08:33;;;;;;;0.20;0.20;;;19.00;46.50;;;;;;4919125;29;20123;-48
2020/12/28 06:11:05;;;;;;;0.68;0.52;;;19.00;46.40;;;;;;4918718;29;20171;-45
2020/12/28 06:13:31;;;;;;;0.85;0.22;;;19.00;46.40;;;;;;4918887;29;20048;-45
2020/12/28 06:16:04;;;;;;;1.27;0.50;;;19.00;46.40;;;;;;4919160;29;20333;-46
2020/12/28 06:18:30;;;;;;;0.50;0.33;;;18.90;46.40;;;;;;4918762;29;20119;-46
2020/12/28 06:20:56;;;;;;;0.20;0.20;;;18.90;46.40;;;;;;4919103;29;20360;-46
2020/12/28 06:23:28;;;;;;;0.38;0.30;;;18.90;46.40;;;;;;4918415;29;20046;-46
2020/12/28 06:25:55;;;;;;;0.65;0.55;;;18.90;46.40;;;;;;4918832;29;20091;-50
2020/12/28 06:28:25;;;;;;;1.08;0.50;;;18.90;46.40;;;;;;4918841;29;20063;-46
2020/12/28 06:30:50;;;;;;;0.40;0.40;;;18.90;46.40;;;;;;4918802;29;20317;-46
2020/12/28 06:33:17;;;;;;;0.38;0.30;;;18.90;46.40;;;;;;4919000;29;20111;-48
2020/12/28 06:35:43;;;;;;;1.27;0.40;;;18.90;46.40;;;;;;4918574;29;20036;-45
2020/12/28 06:38:08;;;;;;;1.17;0.57;;;18.90;46.40;;;;;;4918783;29;20111;-45
2020/12/28 06:40:39;;;;;;;0.50;0.47;;;18.90;46.40;;;;;;4918722;29;20068;-45
2020/12/28 06:43:06;;;;;;;0.50;0.28;;;18.90;46.40;;;;;;4919018;29;20032;-45
2020/12/28 06:45:32;;;;;;;1.27;0.82;;;18.90;46.40;;;;;;4918542;29;20047;-44
2020/12/28 06:47:58;;;;;;;0.52;0.30;;;18.90;46.40;;;;;;4918406;29;20115;-45
2020/12/28 06:50:23;;;;;;;0.40;0.40;;;18.80;46.40;;;;;;4918445;29;20047;-45
2020/12/28 06:52:52;;;;;;;0.63;0.50;;;18.80;46.40;;;;;;4918565;29;20106;-45
2020/12/28 06:55:18;;;;;;;0.65;0.50;;;18.80;46.40;;;;;;4918683;29;20396;-45
2020/12/28 06:57:43;;;;;;;0.82;0.60;;;18.80;46.40;;;;;;4918543;29;20183;-45
2020/12/28 07:00:18;;;;;;;0.55;0.40;;;18.80;46.40;;;;;;4918762;29;20443;-46
2020/12/28 07:02:54;;;;;;;0.45;0.32;;;18.80;46.40;;;;;;4918440;29;20050;-45
2020/12/28 07:05:25;;;;;;;0.90;0.60;;;18.80;46.40;;;;;;4920426;29;20043;-45
2020/12/28 07:07:51;;;;;;;0.50;0.50;;;18.70;46.30;;;;;;4922496;29;20044;-44
2020/12/28 07:10:19;;;;;;;0.77;0.40;;;18.80;46.40;;;;;;4922789;29;20047;-44
2020/12/28 07:12:46;;;;;;;0.50;0.50;;;18.80;46.40;;;;;;4922545;29;20035;-44
2020/12/28 07:15:12;;;;;;;0.93;0.45;;;18.80;46.40;;;;;;4921867;29;20447;-44
2020/12/28 07:17:37;;;;;;;0.60;0.60;;;18.70;46.40;;;;;;4922000;29;20040;-45
2020/12/28 07:20:05;;;;;;;0.40;0.40;;;18.70;46.40;;;;;;4922386;29;20054;-46
2020/12/28 07:22:37;;;;;;;0.50;0.50;;;18.70;46.40;;;;;;4922010;29;20372;-45
2020/12/28 07:25:04;;;;;;;0.55;0.55;;;18.70;46.40;;;;;;4922199;29;20040;-45
2020/12/28 07:27:30;;;;;;;0.63;0.60;;;18.70;46.40;;;;;;4921822;29;20118;-44
2020/12/28 07:29:56;;;;;;;2.17;0.50;;;18.70;46.30;;;;;;4921659;29;20074;-46
2020/12/28 07:32:21;;;;;;;0.75;0.60;;;18.70;46.40;;;;;;4921530;29;20336;-46
2020/12/28 07:34:54;;;;;;;0.93;0.55;;;18.70;46.40;;;;;;4921744;29;20447;-45
2020/12/28 07:37:21;;;;;;;0.55;0.50;;;18.70;46.40;;;;;;4921706;29;20149;-44
2020/12/28 07:39:48;;;;;;;0.47;0.47;;;18.70;46.40;;;;;;4922282;29;20036;-43
2020/12/28 07:42:23;;;;;;;2.90;0.52;;;18.70;46.40;;;;;;4921396;29;20038;-46
2020/12/28 07:45:00;;;;;;;1.15;0.47;;;18.70;46.40;;;;;;4921612;29;20036;-44
2020/12/28 07:47:47;;;;;;;0.40;0.30;;;18.70;46.40;;;;;;4921893;29;20036;-46
2020/12/28 07:50:15;;;;;;;1.20;0.50;;;18.70;46.50;;;;;;4921837;29;20044;-44
2020/12/28 07:52:57;;;;;;;1.25;0.60;;;18.70;46.60;;;;;;4921784;29;20036;-44
2020/12/28 07:55:26;;;;;;;0.95;0.45;;;18.80;46.70;;;;;;4921392;29;20040;-46
2020/12/28 07:58:07;;;;;;;0.82;0.40;;;18.80;46.70;;;;;;4921704;29;20047;-46
2020/12/28 08:00:40;;;;;;;0.50;0.32;;;18.90;46.80;;;;;;4921408;29;20052;-43
2020/12/28 08:03:19;;;;;;;0.50;0.40;;;18.90;47.40;;;;;;4921174;29;20068;-45
2020/12/28 08:05:47;;;;;;;2.03;1.42;;;18.90;46.80;;;;;;4920987;29;20028;-45
2020/12/28 08:08:26;;;;;;;2.15;1.60;;;19.00;46.90;;;;;;4920854;29;20033;-45
2020/12/28 08:10:56;;;;;;;5.20;1.70;;;19.00;47.00;;;;;;4921273;29;20044;-45
2020/12/28 08:13:27;;;;;;;4.35;1.50;;;19.00;47.00;;;;;;4919953;29;20044;-45
2020/12/28 08:15:53;;;;;;;4.25;2.17;;;19.00;47.10;;;;;;4920213;29;20032;-46
2020/12/28 08:18:18;;;;;;;2.28;1.88;;;19.10;47.40;;;;;;4920671;29;20036;-45
2020/12/28 08:20:55;;;;;;;2.97;1.90;;;19.00;47.30;;;;;;4921378;29;20460;-46
2020/12/28 08:23:25;;;;;;;2.80;1.75;;;19.10;47.50;;;;;;4920982;29;20044;-45
2020/12/28 08:25:51;;;;;;;1.52;1.33;;;19.20;47.60;;;;;;4921000;29;20364;-48
2020/12/28 08:28:17;;;;;;;1.80;1.38;;;19.20;47.60;;;;;;4921273;29;20040;-48
2020/12/28 08:30:44;;;;;;;1.95;1.52;;;19.20;47.60;;;;;;4920662;29;20036;-49
2020/12/28 08:33:22;;;;;;;2.78;1.88;;;19.20;47.70;;;;;;4920409;29;20160;-49
2020/12/28 08:35:58;;;;;;;4.60;1.67;;;19.30;47.60;;;;;;4920706;29;20043;-50
2020/12/28 08:38:32;;;;;;;2.85;1.65;;;19.20;47.30;;;;;;4920978;29;20131;-48
2020/12/28 08:40:59;;;;;;;2.60;1.50;;;19.20;47.30;;;;;;4903934;29;20075;-50
2020/12/28 08:43:25;;;;;;;6.93;1.48;;;19.20;47.20;;;;;;4919781;29;20048;-46
2020/12/28 08:46:01;;;;;;;1.65;1.20;;;19.30;47.30;;;;;;4920952;29;20415;-44
2020/12/28 08:48:26;;;;;;;6.15;1.52;;;19.30;47.30;;;;;;4921259;29;20032;-47
2020/12/28 08:50:52;;;;;;;3.05;1.20;;;19.30;47.30;;;;;;4903501;29;20176;-49
2020/12/28 08:53:22;;;;;;;2.05;1.20;;;19.30;47.30;;;;;;4919980;29;20062;-47
2020/12/28 08:55:58;;;;;;;4.10;1.42;;;19.30;47.30;;;;;;4903537;29;20044;-45
2020/12/28 08:58:24;;;;;;;1.95;1.05;;;19.30;47.20;;;;;;4920691;29;20036;-49
2020/12/28 09:00:49;;;;;;;1.63;1.13;;;19.30;47.20;;;;;;4920294;29;20053;-47
2020/12/28 09:03:15;;;;;;;5.85;1.35;;;19.30;47.20;;;;;;4920004;29;20059;-49
2020/12/28 09:05:40;;;;;;;0.75;0.75;;;19.40;47.20;;;;;;4920179;29;20036;-47
2020/12/28 09:08:05;;;;;;;1.50;1.30;;;19.40;47.20;;;;;;4920302;29;20051;-51
2020/12/28 09:10:31;;;;;;;4.05;1.33;;;19.40;47.20;;;;;;4920265;29;20325;-50
2020/12/28 09:12:56;;;;;;;2.90;1.30;;;19.40;47.20;;;;;;4919698;29;20040;-50
2020/12/28 09:15:22;;;;;;;7.28;1.10;;;19.40;47.20;;;;;;4920207;29;20032;-50
2020/12/28 09:17:47;;;;;;;5.10;1.15;;;19.40;47.20;;;;;;4920391;29;20082;-46
2020/12/28 09:20:14;;;;;;;1.52;0.90;;;19.40;47.10;;;;;;4920494;29;20420;-46
2020/12/28 09:22:39;;;;;;;1.25;1.00;;;19.50;47.10;;;;;;4919776;29;20036;-49
2020/12/28 09:25:05;;;;;;;2.95;0.82;;;19.50;47.10;;;;;;4920164;29;20416;-46
2020/12/28 09:27:30;;;;;;;2.25;0.88;;;19.50;47.10;;;;;;4919877;29;20425;-46
2020/12/28 09:29:56;;;;;;;1.33;0.88;;;19.50;47.00;;;;;;4919923;29;20432;-49
2020/12/28 09:32:21;;;;;;;2.78;1.33;;;19.50;47.00;;;;;;4919597;29;20507;-48
2020/12/28 09:34:47;;;;;;;2.03;0.90;;;19.50;47.00;;;;;;4920118;29;20056;-46
2020/12/28 09:37:13;;;;;;;1.67;1.00;;;19.50;46.80;;;;;;4919379;29;20071;-49
2020/12/28 09:39:38;;;;;;;3.08;1.05;;;19.50;46.90;;;;;;4919871;29;20036;-50
2020/12/28 09:42:05;;;;;;;3.45;0.80;;;19.60;46.90;;;;;;4919541;29;20171;-45
2020/12/28 09:44:30;;;;;;;1.23;0.70;;;19.60;47.00;;;;;;4919572;29;20036;-50
2020/12/28 09:46:57;;;;;;;1.50;0.80;;;19.60;47.00;;;;;;4919321;29;20047;-46
2020/12/28 09:49:27;;;;;;;1.48;0.80;;;19.60;47.00;;;;;;5056563;27;674581;-50
2020/12/28 09:51:53;;;;;;;0.80;0.63;;;19.60;47.00;;;;;;5052355;28;20428;-46
2020/12/28 09:54:20;;;;;;;5.20;1.30;;;19.60;47.00;;;;;;5052192;28;20052;-45
2020/12/28 09:56:46;;;;;;;1.15;0.75;;;19.70;47.00;;;;;;5052356;28;20083;-47
2020/12/28 09:59:11;;;;;;;2.30;0.52;;;19.70;47.00;;;;;;5052388;28;20025;-45
2020/12/28 10:01:37;;;;;;;0.80;0.55;;;19.70;47.00;;;;;;5051506;28;20352;-45
2020/12/28 10:04:02;;;;;;;1.33;0.80;;;19.70;47.10;;;;;;5051628;28;20064;-43
2020/12/28 10:06:31;;;;;;;0.95;0.73;;;19.80;47.10;;;;;;5051474;28;20029;-44
2020/12/28 10:09:07;;;;;;;1.80;0.68;;;19.80;47.10;;;;;;5051937;28;20036;-43
2020/12/28 10:11:33;;;;;;;3.10;0.73;;;19.80;47.10;;;;;;5051881;28;20086;-48
2020/12/28 10:13:59;;;;;;;3.15;0.85;;;19.80;47.10;;;;;;5051438;28;20104;-42
2020/12/28 10:16:27;;;;;;;1.35;0.73;;;19.80;47.00;;;;;;5051864;28;20033;-43
2020/12/28 10:18:53;;;;;;;3.85;0.63;;;19.80;47.00;;;;;;5048533;28;20086;-44
2020/12/28 10:21:19;;;;;;;0.93;0.60;;;19.90;47.70;;;;;;5045950;28;20044;-51
2020/12/28 10:23:45;;;;;;;2.97;0.70;;;19.90;47.10;;;;;;5050896;28;20333;-46
2020/12/28 10:26:17;;;;;;;0.80;0.80;;;19.90;47.10;;;;;;5051521;28;20079;-47
2020/12/28 10:28:43;;;;;;;4.10;0.87;;;20.00;47.10;;;;;;5051444;28;20448;-44
2020/12/28 10:31:10;;;;;;;2.38;0.60;;;20.00;46.90;;;;;;5051299;28;20056;-46
2020/12/28 10:33:37;;;;;;;2.30;0.70;;;20.00;46.80;;;;;;5051357;28;20424;-42
2020/12/28 10:36:02;;;;;;;2.45;0.70;;;20.00;46.60;;;;;;5049247;28;20026;-49
2020/12/28 10:38:28;;;;;;;3.58;0.98;;;20.10;46.70;;;;;;5049742;28;20343;-43
2020/12/28 10:40:53;;;;;;;1.90;0.60;;;20.10;46.80;;;;;;5050021;28;20432;-43
2020/12/28 10:43:19;;;;;;;1.45;0.68;;;20.10;46.80;;;;;;5050024;28;20523;-44
2020/12/28 10:45:44;;;;;;;0.60;0.40;;;20.10;46.80;;;;;;5049893;28;20035;-46
2020/12/28 10:48:10;;;;;;;4.18;1.27;;;20.10;46.90;;;;;;5046656;28;20403;-45
2020/12/28 10:50:35;;;;;;;2.38;1.38;;;20.10;47.00;;;;;;5030161;28;20162;-44
2020/12/28 10:53:01;;;;;;;4.45;2.42;;;20.10;47.00;;;;;;5029571;28;20045;-45
2020/12/28 10:55:26;;;;;;;4.75;2.70;;;20.10;47.10;;;;;;5030086;28;20057;-43
2020/12/28 10:57:53;;;;;;;5.15;2.42;;;20.10;47.10;;;;;;5029631;28;20026;-44
2020/12/28 11:00:18;;;;;;;6.10;2.60;;;20.10;47.00;;;;;;5019622;28;20038;-43
2020/12/28 11:02:44;;;;;;;6.68;2.30;;;20.20;47.10;;;;;;5016279;28;20368;-45
2020/12/28 11:05:09;;;;;;;6.10;2.15;;;20.20;47.10;;;;;;5016622;28;20026;-44
2020/12/28 11:07:35;;;;;;;4.30;2.28;;;20.20;47.00;;;;;;5016134;28;20022;-44
2020/12/28 11:10:00;;;;;;;5.47;2.25;;;20.20;47.00;;;;;;5016319;28;20033;-45
2020/12/28 11:12:26;;;;;;;3.47;2.15;;;20.30;47.10;;;;;;5016466;28;20672;-44
2020/12/28 11:14:51;;;;;;;3.50;2.22;;;20.30;47.10;;;;;;5016335;28;20038;-44
2020/12/28 11:17:17;;;;;;;3.85;2.35;;;20.30;47.00;;;;;;5015840;28;20441;-44
2020/12/28 11:19:42;;;;;;;3.58;2.10;;;20.30;47.00;;;;;;5016559;28;20089;-43
2020/12/28 11:22:08;;;;;;;4.60;1.98;;;20.30;47.00;;;;;;5015603;28;20033;-44
2020/12/28 11:24:33;;;;;;;4.32;2.08;;;20.30;47.00;;;;;;5016238;28;20053;-43
2020/12/28 11:26:59;;;;;;;4.93;2.38;;;20.30;47.00;;;;;;5016131;28;20033;-45
2020/12/28 11:29:24;;;;;;;3.95;2.05;;;20.30;47.00;;;;;;5015982;28;20039;-44
2020/12/28 11:31:50;;;;;;;3.80;1.95;;;20.20;46.90;;;;;;5016083;28;20034;-47
2020/12/28 11:34:15;;;;;;;5.00;1.63;;;20.30;47.00;;;;;;5015712;28;20113;-45
2020/12/28 11:36:42;;;;;;;7.00;2.00;;;20.30;47.00;;;;;;5015840;28;20046;-45
2020/12/28 11:39:11;;;;;;;3.45;1.98;;;20.30;47.00;;;;;;5015909;28;20552;-44
2020/12/28 11:41:37;;;;;;;3.08;1.95;;;20.30;47.00;;;;;;5015706;28;20022;-45
2020/12/28 11:44:03;;;;;;;2.88;1.55;;;20.30;47.00;;;;;;5016032;28;20033;-49
2020/12/28 11:46:28;;;;;;;3.42;1.60;;;20.30;46.90;;;;;;5015427;28;20022;-45
2020/12/28 11:48:54;;;;;;;3.65;1.95;;;20.30;46.90;;;;;;5015175;28;20045;-45
2020/12/28 11:51:19;;;;;;;3.00;1.90;;;20.20;46.80;;;;;;5015294;28;20037;-45
2020/12/28 11:53:46;;;;;;;3.80;1.42;;;20.20;46.80;;;;;;5015359;28;20028;-43
2020/12/28 11:56:12;;;;;;;2.95;1.33;;;20.30;47.00;;;;;;5015812;28;20091;-45
2020/12/28 11:58:41;;;;;;;3.42;1.90;;;20.30;46.90;;;;;;5014874;28;20449;-45
2020/12/28 12:01:14;;;;;;;3.03;1.60;;;20.30;46.80;;;;;;5031916;28;20380;-44
2020/12/28 12:03:41;;;;;;;3.53;1.42;;;20.30;46.80;;;;;;5035405;28;20104;-44
2020/12/28 12:06:12;;;;;;;3.17;1.70;;;20.20;46.80;;;;;;5034698;28;20040;-45
2020/12/28 12:08:37;;;;;;;3.65;1.63;;;20.30;46.80;;;;;;5035413;28;20086;-52
2020/12/28 12:11:02;;;;;;;3.17;1.85;;;20.20;46.80;;;;;;5033544;28;20029;-50
2020/12/28 12:13:28;;;;;;;2.17;1.60;;;20.20;46.80;;;;;;5034940;28;20021;-45
2020/12/28 12:15:53;;;;;;;2.15;1.52;;;20.20;46.80;;;;;;5034861;28;20053;-44
2020/12/28 12:18:19;;;;;;;4.53;1.60;;;20.20;46.80;;;;;;5034206;28;20119;-46
2020/12/28 12:20:44;;;;;;;2.63;1.63;;;20.20;46.70;;;;;;5034714;28;20034;-43
2020/12/28 12:23:10;;;;;;;3.13;1.60;;;20.20;46.80;;;;;;5034677;28;20025;-44
2020/12/28 12:25:36;;;;;;;2.08;1.23;;;20.20;46.80;;;;;;5034799;28;20032;-44
2020/12/28 12:28:02;;;;;;;3.30;1.42;;;20.20;46.80;;;;;;5034840;28;20037;-44
2020/12/28 12:30:29;;;;;;;2.42;1.30;;;20.20;47.00;;;;;;5034578;28;20021;-43
2020/12/28 12:32:54;;;;;;;4.00;1.65;;;20.20;46.80;;;;;;5034854;28;20313;-45
2020/12/28 12:35:20;;;;;;;3.15;1.20;;;20.20;46.80;;;;;;5034499;28;20076;-45
2020/12/28 12:37:45;;;;;;;2.35;1.38;;;20.20;46.80;;;;;;5034468;28;20055;-47
2020/12/28 12:40:11;;;;;;;1.77;1.23;;;20.10;46.70;;;;;;5034628;28;20053;-44
2020/12/28 12:42:36;;;;;;;2.58;1.30;;;20.10;46.80;;;;;;5034340;28;20418;-44
2020/12/28 12:45:03;;;;;;;4.55;1.30;;;20.10;46.70;;;;;;5034420;28;20021;-44